Time;durP1;ratioP1;P1;durP2;ratioP2;P2;SDS_P1;SDS_P2;PMS_P1;PMS_P2;Temp;Humidity;BMP_temperature;BMP_pressure;BME280_temperature;BME280_humidity;BME280_pressure;Samples;Min_cycle;Max_cycle;Signal;HPM_P1;HPM_P2
2022/07/28 00:01:19;;;;;;;1.77;0.80;;;17.50;73.20;;;;;;5037839;28;20187;-70
2022/07/28 00:03:45;;;;;;;1.20;0.80;;;17.50;73.20;;;;;;5034614;28;20197;-65
2022/07/28 00:06:11;;;;;;;3.20;1.00;;;17.50;73.30;;;;;;5036226;28;20182;-70
2022/07/28 00:08:37;;;;;;;2.30;0.88;;;17.50;73.40;;;;;;5033396;28;20285;-70
2022/07/28 00:11:05;;;;;;;1.27;0.68;;;17.50;73.60;;;;;;5035859;28;20483;-70
2022/07/28 00:13:31;;;;;;;1.20;0.82;;;17.50;73.50;;;;;;5040107;28;20233;-76
2022/07/28 00:15:56;;;;;;;1.50;0.90;;;17.50;73.70;;;;;;5044200;28;20237;-74
2022/07/28 00:18:22;;;;;;;1.25;0.82;;;17.50;73.80;;;;;;5046049;28;20189;-77
2022/07/28 00:20:47;;;;;;;3.30;0.90;;;17.50;74.00;;;;;;5043341;28;20182;-76
2022/07/28 00:23:16;;;;;;;2.40;0.90;;;17.50;74.00;;;;;;5042735;28;20170;-71
2022/07/28 00:25:41;;;;;;;1.70;1.10;;;17.50;74.50;;;;;;5049911;28;20206;-73
2022/07/28 00:28:07;;;;;;;2.38;1.00;;;17.50;74.30;;;;;;5049854;28;20217;-74
2022/07/28 00:30:33;;;;;;;1.42;1.00;;;17.50;74.40;;;;;;5045044;28;20921;-75
2022/07/28 00:32:58;;;;;;;2.63;0.90;;;17.40;74.70;;;;;;5043410;28;20182;-75
2022/07/28 00:35:24;;;;;;;2.13;0.90;;;17.40;74.40;;;;;;5046316;28;20206;-75
2022/07/28 00:37:49;;;;;;;1.52;0.88;;;17.40;74.80;;;;;;5047092;28;20185;-74
2022/07/28 00:43:13;;;;;;;2.05;0.73;;;17.40;75.00;;;;;;5971922;22;20217;-69
2022/07/28 00:45:38;;;;;;;1.20;0.85;;;17.40;76.50;;;;;;5045869;23;20245;-70
2022/07/28 00:53:18;;;;;;;2.38;1.20;;;17.30;75.50;;;;;;5490398;22;20246;-74
2022/07/28 00:55:46;;;;;;;1.80;1.00;;;17.30;76.00;;;;;;5045862;28;20238;-77
2022/07/28 00:58:15;;;;;;;1.38;0.90;;;17.20;76.10;;;;;;5011396;28;20478;-73
2022/07/28 01:00:43;;;;;;;1.30;1.00;;;17.20;76.30;;;;;;4993454;28;20187;-76
2022/07/28 01:03:08;;;;;;;2.10;1.00;;;17.20;76.20;;;;;;4993087;28;20191;-75
2022/07/28 01:06:00;;;;;;;3.22;1.08;;;17.20;76.40;;;;;;4997150;28;20254;-68
2022/07/28 01:08:34;;;;;;;1.48;0.82;;;17.20;78.10;;;;;;4983050;28;20219;-74
2022/07/28 01:11:10;;;;;;;0.85;0.85;;;17.10;76.40;;;;;;5000563;28;20208;-76
2022/07/28 01:14:00;;;;;;;1.00;0.90;;;17.10;76.50;;;;;;4994875;28;20179;-78
2022/07/28 01:16:27;;;;;;;1.50;0.85;;;17.10;78.20;;;;;;4993080;28;20211;-74
2022/07/28 01:19:16;;;;;;;2.88;1.08;;;17.00;77.30;;;;;;4995606;28;20203;-74
2022/07/28 01:21:44;;;;;;;1.42;1.13;;;16.90;78.70;;;;;;5001211;28;20211;-72
2022/07/28 01:24:37;;;;;;;1.63;0.88;;;16.90;77.50;;;;;;5002814;28;20164;-71
2022/07/28 01:27:08;;;;;;;2.65;1.08;;;16.90;78.20;;;;;;4992430;28;20297;-77
2022/07/28 01:30:03;;;;;;;3.08;1.33;;;16.80;77.60;;;;;;4993359;28;20180;-77
2022/07/28 01:32:39;;;;;;;1.20;1.00;;;16.80;79.00;;;;;;4987467;28;20230;-73
2022/07/28 01:35:10;;;;;;;1.35;0.95;;;16.80;78.10;;;;;;4995356;28;20202;-73
2022/07/28 01:37:47;;;;;;;3.00;1.17;;;16.70;78.10;;;;;;4996141;28;20219;-71
2022/07/28 01:40:19;;;;;;;1.38;0.90;;;16.70;78.60;;;;;;4997104;28;20203;-76
2022/07/28 01:42:48;;;;;;;1.40;1.00;;;16.70;78.50;;;;;;4992103;28;20239;-76
2022/07/28 01:45:15;;;;;;;1.90;1.00;;;16.60;78.60;;;;;;4997413;28;20184;-77
2022/07/28 01:47:48;;;;;;;2.05;1.20;;;16.60;78.70;;;;;;4995371;28;20187;-70
2022/07/28 01:50:19;;;;;;;1.88;1.00;;;16.60;79.10;;;;;;4995277;28;20255;-75
2022/07/28 01:52:49;;;;;;;2.10;0.90;;;16.50;79.30;;;;;;4994258;28;20275;-73
2022/07/28 01:55:19;;;;;;;2.25;1.20;;;16.50;79.50;;;;;;4991300;28;20218;-69
2022/07/28 01:57:46;;;;;;;2.08;0.98;;;16.50;79.60;;;;;;5039196;28;20310;-74
2022/07/28 02:00:16;;;;;;;1.90;0.98;;;16.40;79.60;;;;;;5065366;28;20197;-72
2022/07/28 02:02:47;;;;;;;1.45;0.90;;;16.40;79.60;;;;;;5072500;28;20169;-77
2022/07/28 02:05:16;;;;;;;1.73;1.00;;;16.40;79.90;;;;;;5057578;28;20207;-74
2022/07/28 02:07:45;;;;;;;1.42;0.80;;;16.30;80.10;;;;;;5065315;28;20248;-77
2022/07/28 02:10:15;;;;;;;2.30;1.00;;;16.30;80.00;;;;;;5061754;28;20327;-72
2022/07/28 02:12:45;;;;;;;1.83;1.00;;;16.30;80.10;;;;;;5060599;28;20193;-76
2022/07/28 02:15:12;;;;;;;2.00;1.10;;;16.30;80.70;;;;;;5058920;28;20299;-71
2022/07/28 02:17:41;;;;;;;2.40;1.00;;;16.20;81.10;;;;;;5075189;28;20188;-67
2022/07/28 02:20:09;;;;;;;1.75;1.00;;;16.20;80.90;;;;;;5065981;28;20188;-75
2022/07/28 02:22:37;;;;;;;1.33;0.90;;;16.20;81.10;;;;;;5059387;28;20268;-76
2022/07/28 02:25:06;;;;;;;1.52;0.90;;;16.20;81.10;;;;;;5063317;28;20177;-72
2022/07/28 02:27:34;;;;;;;1.83;1.25;;;16.10;81.10;;;;;;5058507;28;20245;-74
2022/07/28 02:30:15;;;;;;;0.82;0.75;;;16.10;81.90;;;;;;5079465;28;20443;-76
2022/07/28 02:32:55;;;;;;;2.10;1.15;;;16.10;82.90;;;;;;5062076;28;20171;-76
2022/07/28 02:35:35;;;;;;;1.10;0.80;;;16.00;82.00;;;;;;5059310;28;20272;-73
2022/07/28 02:38:10;;;;;;;1.45;0.93;;;16.00;82.80;;;;;;5060852;28;20189;-76
2022/07/28 02:40:38;;;;;;;1.67;1.00;;;16.00;82.40;;;;;;5072332;28;20184;-75
2022/07/28 02:43:10;;;;;;;3.45;1.00;;;16.00;82.30;;;;;;5060609;28;20192;-76
2022/07/28 02:45:39;;;;;;;1.33;0.98;;;16.00;83.00;;;;;;5061866;28;20196;-68
2022/07/28 02:48:10;;;;;;;1.92;1.02;;;15.90;82.90;;;;;;5059640;28;20296;-70
2022/07/28 02:50:39;;;;;;;2.05;0.90;;;15.90;83.40;;;;;;5057515;28;20272;-76
2022/07/28 02:53:06;;;;;;;1.75;1.17;;;15.90;82.70;;;;;;5057664;28;20195;-73
2022/07/28 02:55:34;;;;;;;2.00;0.93;;;15.80;82.90;;;;;;5073752;28;20209;-74
2022/07/28 02:58:00;;;;;;;1.52;0.90;;;15.80;83.00;;;;;;5060927;28;20194;-76
2022/07/28 03:00:30;;;;;;;2.38;1.00;;;15.80;83.20;;;;;;5066745;28;20193;-75
2022/07/28 03:02:56;;;;;;;1.52;0.90;;;15.80;83.20;;;;;;5066091;28;20201;-74
2022/07/28 03:05:22;;;;;;;2.38;1.00;;;15.80;83.50;;;;;;5066494;28;20181;-72
2022/07/28 03:07:55;;;;;;;1.63;0.90;;;15.70;83.60;;;;;;5061554;28;20192;-77
2022/07/28 03:10:26;;;;;;;2.67;1.00;;;15.70;84.30;;;;;;5058531;28;20201;-76
2022/07/28 03:12:56;;;;;;;2.97;1.05;;;15.70;84.50;;;;;;5057582;28;20178;-77
2022/07/28 03:15:24;;;;;;;1.50;0.80;;;15.70;84.40;;;;;;5057964;28;20209;-76
2022/07/28 03:17:50;;;;;;;2.97;1.05;;;15.70;85.00;;;;;;5062111;28;20412;-76
2022/07/28 03:20:16;;;;;;;1.77;0.90;;;15.70;84.70;;;;;;5061261;28;20186;-76
2022/07/28 03:22:41;;;;;;;1.35;0.80;;;15.60;84.70;;;;;;5058961;28;20212;-76
2022/07/28 03:25:15;;;;;;;3.35;1.10;;;15.60;85.00;;;;;;5057448;28;20192;-77
2022/07/28 03:27:49;;;;;;;1.65;1.00;;;15.60;86.10;;;;;;5065787;28;20184;-77
2022/07/28 03:30:18;;;;;;;20.05;13.85;;;15.50;85.90;;;;;;5077796;28;20200;-77
2022/07/28 03:32:49;;;;;;;5.68;4.65;;;15.50;86.00;;;;;;5075129;28;20170;-77
2022/07/28 03:35:19;;;;;;;4.85;3.17;;;15.40;86.40;;;;;;5059590;28;20215;-74
2022/07/28 03:38:04;;;;;;;4.55;3.25;;;15.40;87.20;;;;;;5063630;28;20228;-76
2022/07/28 03:40:35;;;;;;;3.67;2.30;;;15.40;88.10;;;;;;5061730;28;20185;-77
2022/07/28 03:43:05;;;;;;;3.97;2.50;;;15.30;87.10;;;;;;5057107;28;20209;-75
2022/07/28 03:45:36;;;;;;;17.33;12.68;;;15.30;87.60;;;;;;5062054;28;20180;-75
2022/07/28 03:48:02;;;;;;;10.68;8.73;;;15.30;88.10;;;;;;5064590;28;20204;-76
2022/07/28 03:50:32;;;;;;;5.72;4.25;;;15.30;87.90;;;;;;5060031;28;20204;-76
2022/07/28 03:53:04;;;;;;;4.07;3.00;;;15.30;88.40;;;;;;5059709;28;20203;-77
2022/07/28 03:55:29;;;;;;;2.80;2.35;;;15.30;89.20;;;;;;5051165;28;20210;-76
2022/07/28 03:57:58;;;;;;;3.08;1.80;;;15.30;88.70;;;;;;5039268;28;20261;-77
2022/07/28 04:00:24;;;;;;;2.80;1.50;;;15.30;89.00;;;;;;5040101;28;20439;-72
2022/07/28 04:02:50;;;;;;;2.72;1.90;;;15.30;89.20;;;;;;5043552;28;20203;-77
2022/07/28 04:05:17;;;;;;;2.75;1.50;;;15.30;90.10;;;;;;5056686;28;20236;-77
2022/07/28 04:07:46;;;;;;;2.38;1.58;;;15.30;90.10;;;;;;5037719;28;20178;-75
2022/07/28 04:10:16;;;;;;;1.95;1.65;;;15.30;90.20;;;;;;5035558;28;20190;-74
2022/07/28 04:12:51;;;;;;;2.80;1.30;;;15.40;90.70;;;;;;5036985;28;20205;-75
2022/07/28 04:15:18;;;;;;;3.03;1.30;;;15.40;90.90;;;;;;5042279;28;20193;-78
2022/07/28 04:17:47;;;;;;;2.03;1.20;;;15.40;90.60;;;;;;5042871;28;20277;-75
2022/07/28 04:20:15;;;;;;;1.88;1.25;;;15.40;90.60;;;;;;5044489;28;20260;-73
2022/07/28 04:22:41;;;;;;;3.63;1.40;;;15.50;90.80;;;;;;5057494;28;20185;-71
2022/07/28 04:25:07;;;;;;;1.85;1.00;;;15.50;90.80;;;;;;5037337;28;20189;-75
2022/07/28 04:27:39;;;;;;;2.55;1.10;;;15.50;91.00;;;;;;5036672;28;20305;-77
2022/07/28 04:30:17;;;;;;;7.75;5.45;;;15.60;91.50;;;;;;5042986;28;20225;-74
2022/07/28 04:32:48;;;;;;;8.65;5.20;;;15.60;91.50;;;;;;5038165;28;20238;-74
2022/07/28 04:35:14;;;;;;;4.05;2.83;;;15.60;91.40;;;;;;5039907;28;20198;-78
2022/07/28 04:37:43;;;;;;;5.25;2.63;;;15.60;91.00;;;;;;5036245;28;20204;-77
2022/07/28 04:40:10;;;;;;;3.53;2.40;;;15.60;91.30;;;;;;5041183;28;20200;-76
2022/07/28 04:42:37;;;;;;;3.53;2.20;;;15.60;91.10;;;;;;5037734;28;20178;-75
2022/07/28 04:45:05;;;;;;;2.55;1.45;;;15.60;91.10;;;;;;5039623;28;20209;-76
2022/07/28 04:47:30;;;;;;;2.65;1.20;;;15.70;91.20;;;;;;5039449;28;20182;-75
2022/07/28 04:49:56;;;;;;;1.95;1.17;;;15.70;91.20;;;;;;5035117;28;20281;-76
2022/07/28 04:52:24;;;;;;;1.50;1.10;;;15.70;91.20;;;;;;5038613;28;20199;-78
2022/07/28 04:54:50;;;;;;;2.58;1.10;;;15.70;91.20;;;;;;5041485;28;20208;-73
2022/07/28 04:57:15;;;;;;;1.42;1.00;;;15.70;91.20;;;;;;5038218;28;20284;-77
2022/07/28 04:59:41;;;;;;;3.05;1.10;;;15.70;91.30;;;;;;5025552;28;20193;-75
2022/07/28 05:02:07;;;;;;;1.35;0.80;;;15.70;91.40;;;;;;5022177;28;20323;-75
2022/07/28 05:04:33;;;;;;;2.00;1.08;;;15.70;91.40;;;;;;5019674;28;20280;-78
2022/07/28 05:06:59;;;;;;;1.75;0.90;;;15.70;91.40;;;;;;5024161;28;20292;-78
2022/07/28 05:09:25;;;;;;;0.85;0.80;;;15.70;91.60;;;;;;5024033;28;20189;-79
2022/07/28 05:11:51;;;;;;;1.55;1.00;;;15.70;91.60;;;;;;5018820;28;20276;-78
2022/07/28 05:14:19;;;;;;;2.10;1.02;;;15.70;91.70;;;;;;5022632;28;20244;-79
2022/07/28 05:16:45;;;;;;;1.20;0.80;;;15.70;91.80;;;;;;5019552;28;20198;-79
2022/07/28 05:19:11;;;;;;;1.80;1.05;;;15.70;91.80;;;;;;5019015;28;20196;-80
2022/07/28 05:21:36;;;;;;;1.58;0.90;;;15.80;92.00;;;;;;5023381;28;20277;-78
2022/07/28 05:24:05;;;;;;;1.33;0.95;;;15.80;92.10;;;;;;5022463;28;20259;-78
2022/07/28 05:26:31;;;;;;;3.13;1.00;;;15.80;92.20;;;;;;5021281;28;20188;-78
2022/07/28 05:28:56;;;;;;;2.55;1.23;;;15.90;92.20;;;;;;5016555;28;20183;-79
2022/07/28 05:31:25;;;;;;;1.90;0.93;;;16.00;92.20;;;;;;5023670;28;20208;-78
2022/07/28 05:33:53;;;;;;;1.23;1.00;;;16.00;92.40;;;;;;5018907;28;20273;-77
2022/07/28 05:36:21;;;;;;;1.60;1.10;;;16.10;92.40;;;;;;5035539;28;20194;-79
2022/07/28 05:38:48;;;;;;;2.40;1.17;;;16.10;92.50;;;;;;5040581;28;21174;-78
2022/07/28 05:41:15;;;;;;;1.05;0.88;;;16.10;92.20;;;;;;5022479;28;20179;-78
2022/07/28 05:43:43;;;;;;;2.35;0.90;;;16.10;92.20;;;;;;5020285;28;20205;-77
2022/07/28 05:46:13;;;;;;;1.67;0.98;;;16.20;92.30;;;;;;5034419;28;20202;-75
2022/07/28 05:48:42;;;;;;;2.45;1.42;;;16.10;92.50;;;;;;5038343;28;20208;-75
2022/07/28 05:51:07;;;;;;;1.63;0.90;;;16.20;92.50;;;;;;5033796;28;20211;-77
2022/07/28 05:53:33;;;;;;;1.50;1.05;;;16.20;92.30;;;;;;5037360;28;20178;-69
2022/07/28 05:55:58;;;;;;;2.85;1.33;;;16.30;92.30;;;;;;5036150;28;20214;-71
2022/07/28 05:58:24;;;;;;;1.75;0.90;;;16.30;92.50;;;;;;5035910;28;20237;-70
2022/07/28 06:00:50;;;;;;;2.00;0.90;;;16.30;92.40;;;;;;5035074;28;20202;-73
2022/07/28 06:03:18;;;;;;;1.77;1.00;;;16.40;92.40;;;;;;5037052;28;20201;-72
2022/07/28 06:05:46;;;;;;;1.95;1.05;;;16.40;92.50;;;;;;5039073;28;20217;-72
2022/07/28 06:08:12;;;;;;;1.27;1.00;;;16.50;92.50;;;;;;5032892;28;20182;-70
2022/07/28 06:10:58;;;;;;;2.88;1.02;;;16.50;92.40;;;;;;5037191;28;20202;-69
2022/07/28 06:13:24;;;;;;;1.92;1.00;;;16.60;92.40;;;;;;5038424;28;20206;-72
2022/07/28 06:15:51;;;;;;;3.90;1.08;;;16.60;92.40;;;;;;5031074;28;20229;-77
2022/07/28 06:18:18;;;;;;;2.28;1.00;;;16.70;92.50;;;;;;5033241;28;20174;-68
2022/07/28 06:20:47;;;;;;;4.53;1.48;;;16.70;92.50;;;;;;5038251;28;20206;-72
2022/07/28 06:23:22;;;;;;;1.92;0.95;;;16.70;92.50;;;;;;5034568;28;20190;-73
2022/07/28 06:25:48;;;;;;;1.70;0.88;;;16.80;92.60;;;;;;5031567;28;20192;-72
2022/07/28 06:28:14;;;;;;;1.58;0.90;;;16.90;92.40;;;;;;5038732;28;20173;-75
2022/07/28 06:30:42;;;;;;;2.63;1.10;;;16.90;92.40;;;;;;5036681;28;20187;-68
2022/07/28 06:33:08;;;;;;;2.45;1.05;;;17.00;92.60;;;;;;5029721;28;20198;-76
2022/07/28 06:35:38;;;;;;;3.53;1.05;;;17.00;92.40;;;;;;5032892;28;20197;-75
2022/07/28 06:38:04;;;;;;;2.40;1.10;;;17.00;92.50;;;;;;5034576;28;20174;-72
2022/07/28 06:40:30;;;;;;;3.10;1.10;;;17.10;92.40;;;;;;5035580;28;20192;-70
2022/07/28 06:42:56;;;;;;;4.07;1.20;;;17.10;92.50;;;;;;5029205;28;20185;-75
2022/07/28 06:45:24;;;;;;;1.95;1.27;;;17.10;92.50;;;;;;5032077;28;20245;-78
2022/07/28 06:47:50;;;;;;;2.13;1.00;;;17.20;92.60;;;;;;5034074;28;20197;-76
2022/07/28 06:50:16;;;;;;;1.83;1.00;;;17.20;92.60;;;;;;5027891;28;20177;-76
2022/07/28 06:52:44;;;;;;;2.97;1.10;;;17.30;92.70;;;;;;5032036;28;20198;-77
2022/07/28 06:55:11;;;;;;;2.50;0.90;;;17.30;92.70;;;;;;5032632;28;20218;-76
2022/07/28 06:57:37;;;;;;;3.08;0.90;;;17.30;92.70;;;;;;5036997;28;20224;-70
2022/07/28 07:00:07;;;;;;;1.35;0.90;;;17.40;92.70;;;;;;5028939;28;20190;-76
2022/07/28 07:02:42;;;;;;;1.73;1.10;;;17.40;92.80;;;;;;5035761;28;20210;-74
2022/07/28 07:05:09;;;;;;;3.03;1.00;;;17.50;92.90;;;;;;5037125;28;20206;-72
2022/07/28 07:07:37;;;;;;;2.58;1.00;;;17.60;92.90;;;;;;5030639;28;20176;-75
2022/07/28 07:10:04;;;;;;;2.80;1.00;;;17.60;92.80;;;;;;5031756;28;20209;-76
2022/07/28 07:12:34;;;;;;;2.30;1.00;;;17.70;92.80;;;;;;5032982;28;20178;-72
2022/07/28 07:15:01;;;;;;;3.60;0.80;;;17.80;92.90;;;;;;5037099;28;20261;-73
2022/07/28 07:17:27;;;;;;;2.63;0.68;;;17.80;92.80;;;;;;5027628;28;20206;-76
2022/07/28 07:19:53;;;;;;;2.10;0.93;;;17.90;92.70;;;;;;5034324;28;20178;-72
2022/07/28 07:22:18;;;;;;;1.33;0.70;;;18.00;92.70;;;;;;5034764;28;20179;-77
2022/07/28 07:24:44;;;;;;;2.20;1.00;;;18.00;92.70;;;;;;5032084;28;20202;-75
2022/07/28 07:27:10;;;;;;;1.30;0.90;;;18.10;92.70;;;;;;5030294;28;20286;-74
2022/07/28 07:29:37;;;;;;;3.95;0.93;;;18.20;92.80;;;;;;5036413;28;20205;-73
2022/07/28 07:32:05;;;;;;;1.67;0.90;;;18.30;92.70;;;;;;5035929;28;20174;-71
2022/07/28 07:34:31;;;;;;;2.20;1.40;;;18.30;92.70;;;;;;5030170;28;20274;-77
2022/07/28 07:36:59;;;;;;;2.85;1.40;;;18.40;92.60;;;;;;5028339;28;20206;-74
2022/07/28 07:39:24;;;;;;;3.30;1.08;;;18.50;92.70;;;;;;5038443;28;20190;-72
2022/07/28 07:41:52;;;;;;;1.30;0.98;;;18.60;92.60;;;;;;5038851;28;20205;-77
2022/07/28 07:44:18;;;;;;;1.92;1.10;;;18.60;92.60;;;;;;5033975;28;20245;-75
2022/07/28 07:46:46;;;;;;;1.40;0.90;;;18.70;92.50;;;;;;5038543;28;20158;-70
2022/07/28 07:49:17;;;;;;;2.22;1.15;;;18.80;92.50;;;;;;5040094;28;20202;-74
2022/07/28 07:51:45;;;;;;;2.65;0.90;;;18.90;92.50;;;;;;5040302;28;20178;-72
2022/07/28 07:54:10;;;;;;;1.23;0.73;;;18.90;92.40;;;;;;5035845;28;20178;-77
2022/07/28 07:56:36;;;;;;;1.98;0.98;;;19.00;92.30;;;;;;5037663;28;20292;-75
2022/07/28 07:59:02;;;;;;;1.58;0.80;;;19.10;92.20;;;;;;5037417;28;20214;-75
2022/07/28 08:01:27;;;;;;;1.65;0.98;;;19.20;92.50;;;;;;5039277;28;20185;-74
2022/07/28 08:03:53;;;;;;;3.03;1.00;;;19.20;92.00;;;;;;5036379;28;20234;-73
2022/07/28 08:06:21;;;;;;;4.25;0.93;;;19.30;92.00;;;;;;5040782;28;20270;-69
2022/07/28 08:08:49;;;;;;;1.08;0.80;;;19.30;92.00;;;;;;5040308;28;20216;-70
2022/07/28 08:11:14;;;;;;;2.42;1.00;;;19.40;92.00;;;;;;5034588;28;20189;-77
2022/07/28 08:13:42;;;;;;;1.58;0.98;;;19.40;91.90;;;;;;5037253;28;20202;-71
2022/07/28 08:16:08;;;;;;;2.30;0.95;;;19.60;91.90;;;;;;5037896;28;20257;-69
2022/07/28 08:18:36;;;;;;;1.50;1.00;;;19.60;91.70;;;;;;5034241;28;20196;-73
2022/07/28 08:21:02;;;;;;;5.13;1.00;;;19.70;91.70;;;;;;5035281;28;20242;-75
2022/07/28 08:23:32;;;;;;;1.75;0.80;;;19.70;91.60;;;;;;5038702;28;20221;-73
2022/07/28 08:26:02;;;;;;;1.00;0.77;;;19.80;91.70;;;;;;5044447;28;20194;-68
2022/07/28 08:28:28;;;;;;;1.98;0.90;;;19.90;91.60;;;;;;5036095;28;20202;-71
2022/07/28 08:30:54;;;;;;;1.88;0.93;;;19.90;91.50;;;;;;5042652;28;20190;-75
2022/07/28 08:33:20;;;;;;;2.45;0.80;;;20.00;91.50;;;;;;5039102;28;20281;-71
2022/07/28 08:35:51;;;;;;;1.83;0.90;;;20.10;91.50;;;;;;5038746;28;20206;-73
2022/07/28 08:38:17;;;;;;;1.98;0.82;;;20.20;91.50;;;;;;5035598;28;20249;-71
2022/07/28 08:40:49;;;;;;;1.83;0.85;;;20.30;91.60;;;;;;5042565;28;20205;-71
2022/07/28 08:43:33;;;;;;;2.05;0.85;;;20.30;91.40;;;;;;5036806;28;20186;-76
2022/07/28 08:46:00;;;;;;;1.27;0.70;;;20.40;91.00;;;;;;5034162;28;20254;-73
2022/07/28 08:48:30;;;;;;;2.45;0.77;;;20.50;91.20;;;;;;5039516;28;20202;-72
2022/07/28 08:51:02;;;;;;;1.88;1.08;;;20.60;91.00;;;;;;5037585;28;20176;-69
2022/07/28 08:53:30;;;;;;;1.95;0.90;;;20.70;91.00;;;;;;5037723;28;20186;-68
2022/07/28 08:56:03;;;;;;;1.67;0.82;;;20.70;90.90;;;;;;5040682;28;20616;-71
2022/07/28 08:58:31;;;;;;;1.70;0.85;;;20.80;90.80;;;;;;5040765;28;20187;-73
2022/07/28 09:00:57;;;;;;;2.78;0.80;;;20.90;91.00;;;;;;5038768;28;20201;-70
2022/07/28 09:03:26;;;;;;;2.55;0.80;;;21.00;91.00;;;;;;5029027;28;20313;-72
2022/07/28 09:05:53;;;;;;;1.85;0.80;;;21.10;90.80;;;;;;5015395;28;20187;-72
2022/07/28 09:08:18;;;;;;;1.70;0.80;;;21.20;90.80;;;;;;5019619;28;20245;-71
2022/07/28 09:10:45;;;;;;;1.67;1.15;;;21.30;90.80;;;;;;5021384;28;20207;-71
2022/07/28 09:13:11;;;;;;;2.95;0.98;;;21.40;90.30;;;;;;5020716;28;20183;-69
2022/07/28 09:15:37;;;;;;;1.88;0.80;;;21.40;90.30;;;;;;5022939;28;20292;-70
2022/07/28 09:18:03;;;;;;;1.27;0.80;;;21.50;90.30;;;;;;5017214;28;20265;-70
2022/07/28 09:20:29;;;;;;;2.65;0.98;;;21.60;90.30;;;;;;5019225;28;20254;-71
2022/07/28 09:22:59;;;;;;;0.80;0.70;;;21.70;90.30;;;;;;5021250;28;20175;-72
2022/07/28 09:25:26;;;;;;;1.90;0.80;;;21.80;90.20;;;;;;5023675;28;20174;-72
2022/07/28 09:27:53;;;;;;;2.38;0.70;;;22.00;90.20;;;;;;5019342;28;20202;-72
2022/07/28 09:30:37;;;;;;;1.90;0.73;;;22.10;90.10;;;;;;5018634;28;20186;-73
2022/07/28 09:33:28;;;;;;;1.88;1.00;;;22.20;88.70;;;;;;5024026;28;20183;-72
2022/07/28 09:35:56;;;;;;;1.63;0.75;;;22.40;88.20;;;;;;5021576;28;20215;-70
2022/07/28 09:38:38;;;;;;;1.73;1.00;;;22.50;89.30;;;;;;5023320;28;20190;-72
2022/07/28 09:41:07;;;;;;;1.92;0.93;;;22.60;88.80;;;;;;5021510;28;20277;-71
2022/07/28 09:43:38;;;;;;;1.90;0.80;;;22.70;88.50;;;;;;5025619;28;20241;-72
2022/07/28 09:46:09;;;;;;;1.35;0.88;;;22.80;87.80;;;;;;5019026;28;20213;-73
2022/07/28 09:48:49;;;;;;;1.27;0.85;;;22.90;88.10;;;;;;5019542;28;20178;-72
2022/07/28 09:51:22;;;;;;;1.08;0.75;;;23.00;87.90;;;;;;5028291;28;20194;-71
2022/07/28 09:53:50;;;;;;;3.85;0.80;;;23.00;86.90;;;;;;5031767;28;20182;-72
2022/07/28 09:56:16;;;;;;;2.22;0.90;;;23.10;87.30;;;;;;5018581;28;20208;-72
2022/07/28 09:58:53;;;;;;;1.40;0.88;;;23.20;86.70;;;;;;5020738;28;20265;-71
2022/07/28 10:01:19;;;;;;;2.10;0.70;;;23.30;86.10;;;;;;5014694;28;20178;-72
2022/07/28 10:03:52;;;;;;;2.33;0.88;;;23.30;86.40;;;;;;5020517;28;20166;-71
2022/07/28 10:06:39;;;;;;;2.55;0.90;;;23.40;85.90;;;;;;5019833;28;20182;-71
2022/07/28 10:09:11;;;;;;;1.50;0.80;;;23.50;84.90;;;;;;5020471;28;20202;-71
2022/07/28 10:11:39;;;;;;;2.42;0.93;;;23.60;86.10;;;;;;5017645;28;20218;-72
2022/07/28 10:14:06;;;;;;;1.65;0.70;;;23.70;85.40;;;;;;5021513;28;20221;-72
2022/07/28 10:16:52;;;;;;;2.63;0.80;;;23.80;85.70;;;;;;5018780;28;20214;-72
2022/07/28 10:19:17;;;;;;;0.90;0.70;;;23.90;85.20;;;;;;5019632;28;20213;-71
2022/07/28 10:21:44;;;;;;;1.70;0.80;;;24.10;85.50;;;;;;5035372;28;20203;-71
2022/07/28 10:24:21;;;;;;;1.98;0.70;;;24.20;85.10;;;;;;5020553;28;20198;-72
2022/07/28 10:26:51;;;;;;;3.72;0.95;;;24.30;84.40;;;;;;5024606;28;20185;-71
2022/07/28 10:29:23;;;;;;;1.42;0.80;;;24.50;83.70;;;;;;5021617;28;20210;-72
2022/07/28 10:31:48;;;;;;;1.88;0.75;;;24.60;83.60;;;;;;5016979;28;20215;-70
2022/07/28 10:34:26;;;;;;;1.48;0.90;;;24.80;83.90;;;;;;5027392;28;20206;-72
2022/07/28 10:36:55;;;;;;;1.33;0.70;;;25.20;81.40;;;;;;5015515;28;20224;-72
2022/07/28 10:39:24;;;;;;;1.80;0.63;;;25.40;81.80;;;;;;5016979;28;20174;-72
2022/07/28 10:41:50;;;;;;;2.53;0.75;;;25.70;81.70;;;;;;5022721;28;20262;-72
2022/07/28 10:44:18;;;;;;;1.33;0.80;;;26.10;81.90;;;;;;5026554;28;20219;-71
2022/07/28 10:46:44;;;;;;;1.77;0.80;;;26.40;79.60;;;;;;5020002;28;20181;-72
2022/07/28 10:49:12;;;;;;;1.55;0.70;;;26.70;80.20;;;;;;5022142;28;20206;-73
2022/07/28 10:51:41;;;;;;;1.30;0.60;;;27.00;79.30;;;;;;5021092;28;20274;-71
2022/07/28 10:54:13;;;;;;;0.90;0.65;;;27.30;77.70;;;;;;5021078;28;20190;-72
2022/07/28 10:56:47;;;;;;;2.42;0.73;;;27.40;76.90;;;;;;5029460;28;21082;-71
2022/07/28 10:59:37;;;;;;;0.95;0.52;;;27.70;74.90;;;;;;5026080;28;20322;-72
2022/07/28 11:02:02;;;;;;;2.05;0.80;;;27.90;74.70;;;;;;5017262;28;20253;-72
2022/07/28 11:04:44;;;;;;;1.02;0.68;;;28.00;76.40;;;;;;5020028;28;20265;-71
2022/07/28 11:07:21;;;;;;;1.33;0.68;;;28.10;73.80;;;;;;5019115;28;20178;-72
2022/07/28 11:09:53;;;;;;;1.27;0.80;;;28.20;72.10;;;;;;5022382;28;20179;-73
2022/07/28 11:12:49;;;;;;;2.28;0.80;;;28.30;74.20;;;;;;5019434;28;20414;-73
2022/07/28 11:15:32;;;;;;;3.10;0.73;;;28.40;71.00;;;;;;5022560;28;20194;-71
2022/07/28 11:18:01;;;;;;;2.35;0.82;;;28.60;71.00;;;;;;5025603;28;20209;-70
2022/07/28 11:20:48;;;;;;;0.70;0.50;;;28.70;72.20;;;;;;5025854;28;20170;-72
2022/07/28 11:23:46;;;;;;;1.50;0.70;;;28.80;69.30;;;;;;5036561;28;20361;-73
2022/07/28 11:26:26;;;;;;;2.55;0.70;;;28.90;69.50;;;;;;5023841;28;20174;-72
2022/07/28 11:29:07;;;;;;;2.05;0.80;;;29.10;70.30;;;;;;5029501;28;20261;-72
2022/07/28 11:31:45;;;;;;;1.17;0.70;;;29.20;69.20;;;;;;5045084;28;20205;-72
2022/07/28 11:34:20;;;;;;;0.65;0.60;;;29.30;68.40;;;;;;5034977;28;20238;-73
2022/07/28 11:37:17;;;;;;;1.13;0.70;;;29.40;67.30;;;;;;5024376;28;20197;-71
2022/07/28 11:39:45;;;;;;;0.90;0.60;;;29.60;67.90;;;;;;5013208;28;20193;-74
2022/07/28 11:42:33;;;;;;;1.20;0.80;;;29.70;69.20;;;;;;5024585;28;20171;-72
2022/07/28 11:45:23;;;;;;;1.77;0.80;;;29.90;65.90;;;;;;5024976;28;20175;-74
2022/07/28 11:48:15;;;;;;;0.90;0.60;;;30.00;63.20;;;;;;5023840;28;20175;-73
2022/07/28 11:50:44;;;;;;;4.43;1.10;;;30.10;63.20;;;;;;5042062;28;20274;-75
2022/07/28 11:53:12;;;;;;;1.85;0.90;;;30.20;66.70;;;;;;5025236;28;20174;-73
2022/07/28 11:55:38;;;;;;;3.08;0.88;;;30.30;66.60;;;;;;5023235;28;20202;-72
2022/07/28 11:58:05;;;;;;;2.05;0.90;;;30.40;66.40;;;;;;5024983;28;20194;-74
2022/07/28 12:00:30;;;;;;;1.48;1.13;;;30.40;65.20;;;;;;5022187;28;20182;-74
2022/07/28 12:02:56;;;;;;;2.65;1.10;;;30.50;63.50;;;;;;5022750;28;20209;-73
2022/07/28 12:05:24;;;;;;;1.55;0.80;;;30.50;61.20;;;;;;5025235;28;20198;-73
2022/07/28 12:07:51;;;;;;;1.95;0.73;;;30.30;60.80;;;;;;5023532;28;20182;-72
2022/07/28 12:10:23;;;;;;;1.02;0.88;;;30.20;60.00;;;;;;5024555;28;20190;-73
2022/07/28 12:12:55;;;;;;;1.23;0.73;;;30.00;59.00;;;;;;5020784;28;20190;-72
2022/07/28 12:15:21;;;;;;;1.48;0.70;;;29.70;58.80;;;;;;5024788;28;20198;-72
2022/07/28 12:17:47;;;;;;;3.05;1.00;;;29.60;59.50;;;;;;5025657;28;20250;-72
2022/07/28 12:20:17;;;;;;;1.17;0.60;;;29.50;59.70;;;;;;5018254;28;20187;-71
2022/07/28 12:23:02;;;;;;;0.90;0.80;;;29.40;59.20;;;;;;5024379;28;20170;-73
2022/07/28 12:25:30;;;;;;;1.70;0.88;;;29.30;58.60;;;;;;5040022;28;20214;-72
2022/07/28 12:27:57;;;;;;;2.50;1.13;;;29.20;59.40;;;;;;5023832;28;20264;-73
2022/07/28 12:30:27;;;;;;;1.90;1.30;;;29.10;59.50;;;;;;5022652;28;20282;-72
2022/07/28 12:32:56;;;;;;;2.08;0.85;;;29.10;59.70;;;;;;5023813;28;20183;-73
2022/07/28 12:35:22;;;;;;;2.58;1.40;;;29.10;60.20;;;;;;5022660;28;20213;-72
2022/07/28 12:37:49;;;;;;;1.98;0.80;;;29.10;59.20;;;;;;5023420;28;20178;-73
2022/07/28 12:40:22;;;;;;;1.27;0.75;;;29.10;59.20;;;;;;5026332;28;20188;-73
2022/07/28 12:42:52;;;;;;;2.35;0.88;;;29.10;58.80;;;;;;5016549;28;20170;-71
2022/07/28 12:45:18;;;;;;;2.30;1.40;;;29.10;59.50;;;;;;5020166;28;20213;-72
2022/07/28 12:47:46;;;;;;;2.38;1.13;;;29.20;59.50;;;;;;5025574;28;20190;-74
2022/07/28 12:50:14;;;;;;;1.65;0.90;;;29.40;59.70;;;;;;5026029;28;20269;-74
2022/07/28 12:52:42;;;;;;;1.00;0.80;;;29.60;59.00;;;;;;5022701;28;20213;-73
2022/07/28 12:55:28;;;;;;;3.15;0.80;;;29.60;58.40;;;;;;5024249;28;20205;-72
2022/07/28 12:57:58;;;;;;;1.83;0.80;;;29.70;57.80;;;;;;5019834;28;20273;-72
2022/07/28 13:00:30;;;;;;;4.35;1.02;;;29.70;57.90;;;;;;5030031;28;20194;-73
2022/07/28 13:02:58;;;;;;;5.03;1.52;;;29.90;58.20;;;;;;5022178;28;20182;-72
2022/07/28 13:05:28;;;;;;;1.20;1.10;;;29.90;57.80;;;;;;5024250;28;20177;-73
2022/07/28 13:08:03;;;;;;;1.00;0.80;;;29.90;57.50;;;;;;5029783;28;20174;-72